Time;durP1;ratioP1;P1;durP2;ratioP2;P2;SDS_P1;SDS_P2;PMS_P1;PMS_P2;Temp;Humidity;BMP_temperature;BMP_pressure;BME280_temperature;BME280_humidity;BME280_pressure;Samples;Min_cycle;Max_cycle;Signal;HPM_P1;HPM_P2
2022/07/24 00:01:31;;;;;;;7.27;6.30;;;19.00;99.90;;;;;;483425;245;28901;-71
2022/07/24 00:03:32;;;;;;;7.07;6.40;;;18.80;99.90;;;;;;483416;245;29353;-68
2022/07/24 00:05:33;;;;;;;6.70;6.07;;;18.80;99.90;;;;;;483406;246;29321;-69
2022/07/24 00:07:38;;;;;;;7.87;7.13;;;18.80;99.90;;;;;;483384;245;29414;-68
2022/07/24 00:09:39;;;;;;;7.00;6.40;;;18.70;99.90;;;;;;483426;245;28950;-69
2022/07/24 00:11:40;;;;;;;7.20;6.57;;;18.70;99.90;;;;;;483432;245;29242;-68
2022/07/24 00:13:41;;;;;;;7.20;6.50;;;18.80;99.90;;;;;;483411;245;29305;-69
2022/07/24 00:15:43;;;;;;;7.47;6.77;;;18.80;99.90;;;;;;483439;245;29490;-68
2022/07/24 00:17:44;;;;;;;6.80;6.20;;;18.70;99.90;;;;;;483361;245;28796;-69
2022/07/24 00:19:45;;;;;;;6.53;6.00;;;18.70;99.90;;;;;;483424;245;28821;-70
2022/07/24 00:21:46;;;;;;;6.33;5.83;;;18.70;99.90;;;;;;483393;246;28810;-69
2022/07/24 00:23:48;;;;;;;6.73;6.13;;;18.70;99.90;;;;;;483392;245;28821;-69
2022/07/24 00:25:49;;;;;;;6.70;6.10;;;18.70;99.90;;;;;;483415;245;28801;-69
2022/07/24 00:27:50;;;;;;;7.07;6.37;;;18.70;99.90;;;;;;483373;246;28799;-69
2022/07/24 00:29:51;;;;;;;7.53;6.50;;;18.60;99.90;;;;;;483397;246;28891;-69
2022/07/24 00:31:53;;;;;;;6.17;5.67;;;18.60;99.90;;;;;;483407;245;28929;-68
2022/07/24 00:33:54;;;;;;;6.63;5.97;;;18.60;99.90;;;;;;483378;245;28978;-69
2022/07/24 00:35:55;;;;;;;6.57;5.87;;;18.50;99.90;;;;;;483293;245;29751;-68
2022/07/24 00:37:56;;;;;;;6.90;6.20;;;18.50;99.90;;;;;;483346;245;29224;-68
2022/07/24 00:39:58;;;;;;;6.63;6.03;;;18.50;99.90;;;;;;483399;245;29402;-70
2022/07/24 00:41:59;;;;;;;7.30;6.60;;;18.40;99.90;;;;;;483391;245;29276;-68
2022/07/24 00:44:00;;;;;;;6.30;5.80;;;18.30;99.90;;;;;;483389;245;28899;-69
2022/07/24 00:46:01;;;;;;;6.80;6.20;;;18.20;99.90;;;;;;483372;245;28921;-71
2022/07/24 00:48:03;;;;;;;7.30;6.60;;;18.10;99.90;;;;;;483352;245;29001;-69
2022/07/24 00:50:04;;;;;;;7.37;6.67;;;18.10;99.90;;;;;;483394;245;28842;-70
2022/07/24 00:52:05;;;;;;;5.90;5.40;;;18.00;99.90;;;;;;483383;245;28801;-69
2022/07/24 00:54:06;;;;;;;6.90;6.20;;;18.00;99.90;;;;;;483368;246;28833;-69
2022/07/24 00:56:08;;;;;;;6.60;6.00;;;18.00;99.90;;;;;;483352;245;29163;-72
2022/07/24 00:58:09;;;;;;;6.83;6.13;;;18.00;99.90;;;;;;483385;245;28878;-69
2022/07/24 01:00:10;;;;;;;6.60;6.00;;;18.00;99.90;;;;;;483413;245;29216;-70
2022/07/24 01:02:11;;;;;;;7.27;6.63;;;18.00;99.90;;;;;;483396;245;29217;-69
2022/07/24 01:04:13;;;;;;;6.43;5.83;;;18.00;99.90;;;;;;483367;245;29325;-68
2022/07/24 01:06:14;;;;;;;6.70;6.10;;;18.00;99.90;;;;;;483332;245;29399;-68
2022/07/24 01:08:15;;;;;;;7.70;6.90;;;18.00;99.90;;;;;;483397;245;28805;-69
2022/07/24 01:10:16;;;;;;;6.30;5.80;;;18.00;99.90;;;;;;483398;245;28872;-70
2022/07/24 01:12:18;;;;;;;7.10;6.40;;;18.00;99.90;;;;;;483393;245;28865;-68
2022/07/24 01:14:19;;;;;;;6.50;5.90;;;17.90;99.90;;;;;;483384;246;28814;-69
2022/07/24 01:16:20;;;;;;;7.00;6.33;;;17.90;99.90;;;;;;483206;245;28885;-68
2022/07/24 01:18:21;;;;;;;5.90;5.40;;;17.90;99.90;;;;;;483376;245;28869;-68
2022/07/24 01:20:23;;;;;;;5.97;5.47;;;17.80;99.90;;;;;;483401;245;28845;-69
2022/07/24 01:22:24;;;;;;;6.60;6.00;;;17.80;99.90;;;;;;483402;245;28833;-68
2022/07/24 01:24:25;;;;;;;6.70;6.07;;;17.90;99.90;;;;;;483367;245;28922;-68
2022/07/24 01:26:26;;;;;;;6.60;6.00;;;17.70;99.90;;;;;;483326;245;29779;-71
2022/07/24 01:28:28;;;;;;;6.77;6.17;;;17.70;99.90;;;;;;483433;245;29249;-69
2022/07/24 01:30:29;;;;;;;6.77;6.17;;;17.70;99.90;;;;;;483407;245;29408;-70
2022/07/24 01:32:30;;;;;;;7.30;6.60;;;17.60;99.90;;;;;;483405;246;28861;-68
2022/07/24 01:34:31;;;;;;;7.20;6.57;;;17.60;99.90;;;;;;483350;245;28864;-73
2022/07/24 01:36:33;;;;;;;6.70;6.10;;;17.60;99.90;;;;;;483310;245;28863;-68
2022/07/24 01:38:34;;;;;;;7.37;6.67;;;17.50;99.90;;;;;;483402;245;28774;-69
2022/07/24 01:40:35;;;;;;;6.70;5.60;;;17.50;99.90;;;;;;483411;245;28859;-69
2022/07/24 01:42:36;;;;;;;6.07;5.57;;;17.60;99.90;;;;;;483379;245;28795;-68
2022/07/24 01:44:38;;;;;;;6.60;6.00;;;17.50;99.90;;;;;;483369;245;28880;-68
2022/07/24 01:46:39;;;;;;;6.77;6.17;;;17.50;99.90;;;;;;483327;246;28874;-72
2022/07/24 01:48:40;;;;;;;5.60;5.13;;;17.50;99.90;;;;;;483392;245;28790;-68
2022/07/24 01:50:41;;;;;;;6.77;6.17;;;17.50;99.90;;;;;;483309;245;28851;-69
2022/07/24 01:52:43;;;;;;;6.03;5.53;;;17.40;99.90;;;;;;483384;245;28934;-68
2022/07/24 01:54:44;;;;;;;6.47;5.93;;;17.40;99.90;;;;;;482747;245;29279;-68
2022/07/24 01:56:45;;;;;;;6.13;5.53;;;17.40;99.90;;;;;;481912;245;29105;-71
2022/07/24 01:58:46;;;;;;;7.40;6.23;;;17.30;99.90;;;;;;481890;245;29759;-68
2022/07/24 02:00:48;;;;;;;6.83;6.23;;;17.40;99.90;;;;;;482823;245;29355;-69
2022/07/24 02:02:49;;;;;;;5.90;5.40;;;17.30;99.90;;;;;;483352;245;29264;-68
2022/07/24 02:04:50;;;;;;;6.20;5.70;;;17.30;99.90;;;;;;483414;246;28801;-68
2022/07/24 02:06:51;;;;;;;6.80;5.90;;;17.30;99.90;;;;;;483363;245;28848;-72
2022/07/24 02:08:53;;;;;;;6.60;5.57;;;17.20;99.90;;;;;;483434;245;28834;-68
2022/07/24 02:10:54;;;;;;;6.30;5.67;;;17.20;99.90;;;;;;483396;245;28859;-71
2022/07/24 02:12:55;;;;;;;6.10;5.60;;;17.20;99.90;;;;;;483395;246;28892;-68
2022/07/24 02:14:56;;;;;;;6.20;5.60;;;17.10;99.90;;;;;;483445;245;28816;-67
2022/07/24 02:16:58;;;;;;;5.60;5.10;;;17.10;99.90;;;;;;483322;245;28906;-71
2022/07/24 02:18:59;;;;;;;6.30;5.70;;;17.10;99.90;;;;;;483407;245;28863;-68
2022/07/24 02:21:00;;;;;;;5.40;5.00;;;17.10;99.90;;;;;;483413;246;28821;-69
2022/07/24 02:23:01;;;;;;;5.60;5.10;;;17.10;99.90;;;;;;483382;245;29268;-69
2022/07/24 02:25:03;;;;;;;5.73;5.23;;;17.10;99.90;;;;;;483405;246;29309;-68
2022/07/24 02:27:04;;;;;;;6.43;5.80;;;17.10;99.90;;;;;;483367;245;29402;-71
2022/07/24 02:29:05;;;;;;;5.87;5.23;;;17.00;99.90;;;;;;483418;245;29242;-68
2022/07/24 02:31:06;;;;;;;6.40;5.80;;;17.00;99.90;;;;;;483392;245;28843;-69
2022/07/24 02:33:08;;;;;;;6.53;5.93;;;16.90;99.90;;;;;;483401;245;28810;-68
2022/07/24 02:35:09;;;;;;;6.23;5.70;;;16.80;99.90;;;;;;483326;243;28884;-70
2022/07/24 02:37:10;;;;;;;6.50;5.47;;;16.80;99.90;;;;;;483268;245;28947;-70
2022/07/24 02:39:11;;;;;;;6.67;6.07;;;16.80;99.90;;;;;;483410;245;28801;-69
2022/07/24 02:41:13;;;;;;;5.93;5.43;;;16.70;99.90;;;;;;483380;245;28911;-68
2022/07/24 02:43:14;;;;;;;5.70;5.20;;;16.60;99.90;;;;;;483416;245;28786;-68
2022/07/24 02:45:15;;;;;;;5.73;5.23;;;16.70;99.90;;;;;;483422;245;28827;-69
2022/07/24 02:47:16;;;;;;;6.30;5.70;;;16.60;99.90;;;;;;483336;245;28920;-71
2022/07/24 02:49:18;;;;;;;6.27;5.60;;;16.70;99.90;;;;;;483421;245;29241;-68
2022/07/24 02:51:19;;;;;;;5.70;5.20;;;16.60;99.90;;;;;;483378;245;29304;-69
2022/07/24 02:53:20;;;;;;;6.20;5.60;;;16.60;99.90;;;;;;483405;245;29274;-68
2022/07/24 02:55:22;;;;;;;6.20;5.70;;;16.50;99.90;;;;;;483395;245;28824;-68
2022/07/24 02:57:23;;;;;;;6.90;6.30;;;16.50;99.90;;;;;;483376;245;28923;-72
2022/07/24 02:59:24;;;;;;;5.80;5.30;;;16.40;99.90;;;;;;483415;245;28770;-69
2022/07/24 03:01:26;;;;;;;5.80;5.30;;;16.40;99.90;;;;;;483420;245;28810;-69
2022/07/24 03:03:27;;;;;;;5.67;5.17;;;16.50;99.90;;;;;;483418;245;28774;-67
2022/07/24 03:05:28;;;;;;;5.63;5.20;;;16.40;99.90;;;;;;483406;245;28824;-68
2022/07/24 03:07:29;;;;;;;5.80;5.30;;;16.40;99.90;;;;;;483366;245;28839;-71
2022/07/24 03:09:30;;;;;;;6.10;5.50;;;16.40;99.90;;;;;;483379;245;28845;-68
2022/07/24 03:11:32;;;;;;;5.90;5.30;;;16.40;99.90;;;;;;483392;245;28883;-68
2022/07/24 03:13:33;;;;;;;6.70;5.87;;;16.30;99.90;;;;;;483381;245;29363;-68
2022/07/24 03:15:34;;;;;;;5.30;4.80;;;16.30;99.90;;;;;;483375;245;29369;-69
2022/07/24 03:17:35;;;;;;;5.87;5.23;;;16.30;99.90;;;;;;483371;245;29283;-72
2022/07/24 03:19:37;;;;;;;5.50;5.00;;;16.30;99.90;;;;;;483373;245;28790;-68
2022/07/24 03:21:38;;;;;;;5.63;5.23;;;16.30;99.90;;;;;;483402;246;28815;-68
2022/07/24 03:23:39;;;;;;;6.00;5.50;;;16.30;99.90;;;;;;483278;245;28811;-68
2022/07/24 03:25:40;;;;;;;5.70;5.20;;;16.20;99.90;;;;;;483398;245;28925;-69
2022/07/24 03:27:42;;;;;;;5.87;5.37;;;16.10;99.90;;;;;;483362;246;28921;-68
2022/07/24 03:29:43;;;;;;;6.97;6.27;;;16.00;99.90;;;;;;483388;245;28838;-68
2022/07/24 03:31:44;;;;;;;6.07;5.47;;;15.90;99.90;;;;;;483402;245;28861;-69
2022/07/24 03:33:45;;;;;;;6.73;6.03;;;15.90;99.90;;;;;;483403;245;28860;-68
2022/07/24 03:35:47;;;;;;;6.20;5.70;;;16.00;99.90;;;;;;483292;245;28912;-68
2022/07/24 03:37:48;;;;;;;5.13;4.73;;;16.00;99.90;;;;;;483328;245;29788;-68
2022/07/24 03:39:49;;;;;;;5.87;5.37;;;16.00;99.90;;;;;;483419;245;29159;-70
2022/07/24 03:41:50;;;;;;;5.70;5.20;;;16.00;99.90;;;;;;483423;246;29393;-69
2022/07/24 03:43:52;;;;;;;5.43;4.93;;;16.00;99.90;;;;;;483409;245;29238;-68
2022/07/24 03:45:53;;;;;;;5.30;4.80;;;15.80;99.90;;;;;;483375;245;28813;-69
2022/07/24 03:47:54;;;;;;;5.60;5.07;;;15.80;99.90;;;;;;483330;245;28846;-67
2022/07/24 03:49:55;;;;;;;5.27;4.87;;;15.80;99.90;;;;;;483430;245;28805;-68
2022/07/24 03:51:57;;;;;;;5.67;5.07;;;15.80;99.90;;;;;;483418;245;28820;-70
2022/07/24 03:53:58;;;;;;;5.70;4.57;;;15.80;99.90;;;;;;483371;245;28775;-68
2022/07/24 03:55:59;;;;;;;5.47;4.97;;;15.90;99.90;;;;;;483319;245;28829;-72
2022/07/24 03:58:00;;;;;;;4.70;4.30;;;15.80;99.90;;;;;;483326;245;28779;-68
2022/07/24 04:00:02;;;;;;;5.30;4.90;;;15.70;99.90;;;;;;483394;245;28886;-68
2022/07/24 04:02:03;;;;;;;5.03;4.63;;;15.80;99.90;;;;;;483431;245;29253;-70
2022/07/24 04:04:07;;;;;;;5.40;4.90;;;15.80;99.90;;;;;;483399;245;29321;-68
2022/07/24 04:06:08;;;;;;;5.53;5.03;;;15.80;99.90;;;;;;483366;245;28792;-68
2022/07/24 04:08:10;;;;;;;5.97;5.47;;;15.70;99.90;;;;;;483420;246;28836;-69
2022/07/24 04:10:12;;;;;;;5.40;4.90;;;15.70;99.90;;;;;;483445;245;28936;-71
2022/07/24 04:12:13;;;;;;;5.63;5.13;;;15.70;99.90;;;;;;483420;245;28890;-71
2022/07/24 04:14:14;;;;;;;5.30;4.90;;;15.70;99.90;;;;;;483394;245;28786;-68
2022/07/24 04:16:16;;;;;;;5.43;4.97;;;15.70;99.90;;;;;;483360;245;29316;-69
2022/07/24 04:18:17;;;;;;;5.50;5.00;;;15.60;99.90;;;;;;483401;245;29240;-67
2022/07/24 04:20:18;;;;;;;5.47;5.07;;;15.60;99.90;;;;;;483416;245;29255;-68
2022/07/24 04:22:19;;;;;;;6.60;5.70;;;15.70;99.90;;;;;;483405;245;29501;-71
2022/07/24 04:24:21;;;;;;;5.20;4.73;;;15.70;99.90;;;;;;483418;245;28780;-69
2022/07/24 04:26:22;;;;;;;5.93;5.43;;;15.70;99.90;;;;;;483339;245;28815;-68
2022/07/24 04:28:23;;;;;;;5.43;4.93;;;15.70;99.90;;;;;;483378;245;28825;-67
2022/07/24 04:30:24;;;;;;;5.20;4.70;;;15.70;99.90;;;;;;483368;246;28876;-68
2022/07/24 04:32:26;;;;;;;5.20;4.70;;;15.80;99.90;;;;;;483385;245;28831;-71
2022/07/24 04:34:27;;;;;;;5.40;4.90;;;15.90;99.90;;;;;;483319;245;28813;-77
2022/07/24 04:36:28;;;;;;;5.20;4.80;;;15.80;99.90;;;;;;483304;245;28845;-68
2022/07/24 04:38:30;;;;;;;5.40;5.00;;;15.70;99.90;;;;;;483410;245;28784;-68
2022/07/24 04:40:31;;;;;;;5.40;5.00;;;15.80;99.90;;;;;;483384;245;28904;-69
2022/07/24 04:42:32;;;;;;;5.67;5.17;;;15.80;99.90;;;;;;483409;245;28840;-72
2022/07/24 04:44:33;;;;;;;5.27;4.80;;;15.90;99.90;;;;;;483406;246;28829;-68
2022/07/24 04:46:34;;;;;;;4.77;4.47;;;16.00;99.90;;;;;;483310;245;28887;-72
2022/07/24 04:48:36;;;;;;;5.03;4.63;;;16.00;99.90;;;;;;483379;245;29251;-68
2022/07/24 04:50:37;;;;;;;5.33;4.93;;;15.90;99.90;;;;;;483352;245;29430;-68
2022/07/24 04:52:38;;;;;;;5.17;4.77;;;16.00;99.90;;;;;;483407;245;29605;-70
2022/07/24 04:54:39;;;;;;;4.93;4.43;;;16.00;99.90;;;;;;483404;245;29246;-68
2022/07/24 04:56:41;;;;;;;5.60;5.10;;;16.10;99.90;;;;;;483334;245;28826;-70
2022/07/24 04:58:42;;;;;;;5.13;4.73;;;16.10;99.90;;;;;;483380;245;28779;-67
2022/07/24 05:00:43;;;;;;;4.93;4.63;;;16.10;99.90;;;;;;483377;245;28920;-68
2022/07/24 05:02:44;;;;;;;4.73;4.43;;;16.20;99.90;;;;;;483412;245;28828;-71
2022/07/24 05:04:46;;;;;;;4.67;4.37;;;16.20;99.90;;;;;;483418;245;28868;-68
2022/07/24 05:06:47;;;;;;;4.97;4.57;;;16.20;99.90;;;;;;483362;245;28821;-70
2022/07/24 05:08:48;;;;;;;5.13;4.63;;;16.30;99.90;;;;;;483346;245;28876;-70
2022/07/24 05:10:49;;;;;;;4.97;4.57;;;16.30;99.90;;;;;;483309;245;28953;-69
2022/07/24 05:12:51;;;;;;;4.67;4.27;;;16.30;99.90;;;;;;483397;246;29801;-71
2022/07/24 05:14:52;;;;;;;4.70;4.30;;;16.40;99.90;;;;;;483416;245;29332;-68
2022/07/24 05:16:53;;;;;;;5.20;4.73;;;16.40;99.90;;;;;;483353;245;29331;-71
2022/07/24 05:18:54;;;;;;;5.10;4.70;;;16.30;99.90;;;;;;483405;245;29242;-68
2022/07/24 05:20:56;;;;;;;4.97;4.57;;;16.30;99.90;;;;;;483421;245;28939;-69
2022/07/24 05:22:58;;;;;;;4.97;4.57;;;16.20;99.90;;;;;;483391;246;28903;-68
2022/07/24 05:24:58;;;;;;;4.90;4.60;;;16.30;99.90;;;;;;483409;245;28771;-68
2022/07/24 05:26:59;;;;;;;5.93;5.40;;;16.40;99.90;;;;;;483355;245;28818;-68
2022/07/24 05:29:01;;;;;;;4.83;4.43;;;16.50;99.90;;;;;;483391;243;28876;-68
2022/07/24 05:31:02;;;;;;;4.90;4.50;;;16.50;99.90;;;;;;483405;245;28847;-70
2022/07/24 05:33:03;;;;;;;5.30;4.90;;;16.60;99.90;;;;;;483382;245;28915;-71
2022/07/24 05:35:04;;;;;;;5.10;4.70;;;16.70;99.90;;;;;;483321;245;28808;-68
2022/07/24 05:37:06;;;;;;;4.87;4.47;;;16.70;99.90;;;;;;483322;245;28923;-71
2022/07/24 05:39:07;;;;;;;5.00;4.60;;;16.80;99.90;;;;;;483390;246;29240;-69
2022/07/24 05:41:08;;;;;;;4.40;4.07;;;16.90;99.90;;;;;;483358;245;29518;-69
2022/07/24 05:43:09;;;;;;;4.80;4.40;;;17.00;99.90;;;;;;483409;245;29592;-71
2022/07/24 05:45:11;;;;;;;4.27;3.93;;;17.10;99.90;;;;;;483420;245;28801;-68
2022/07/24 05:47:12;;;;;;;4.73;4.33;;;17.00;99.90;;;;;;483356;245;28814;-70
2022/07/24 05:49:13;;;;;;;4.97;4.57;;;17.10;99.90;;;;;;483393;245;28807;-68
2022/07/24 05:51:14;;;;;;;4.93;4.53;;;17.20;99.90;;;;;;483377;245;28910;-69
2022/07/24 05:53:16;;;;;;;4.70;4.30;;;17.30;99.90;;;;;;483392;245;28841;-71
2022/07/24 05:55:17;;;;;;;5.00;4.60;;;17.30;99.90;;;;;;483393;246;28871;-69
2022/07/24 05:57:18;;;;;;;4.53;4.13;;;17.40;99.90;;;;;;483324;245;28853;-69
2022/07/24 05:59:19;;;;;;;4.47;4.07;;;17.50;99.90;;;;;;483376;245;28777;-68
2022/07/24 06:01:21;;;;;;;4.27;3.97;;;17.50;99.90;;;;;;483375;245;28891;-69
2022/07/24 06:03:22;;;;;;;4.90;4.50;;;17.60;99.90;;;;;;483427;245;29177;-71
2022/07/24 06:05:23;;;;;;;4.53;4.13;;;17.60;99.90;;;;;;483385;245;29298;-68
2022/07/24 06:07:24;;;;;;;5.00;4.50;;;17.70;99.90;;;;;;483344;245;29276;-69
2022/07/24 06:09:26;;;;;;;4.90;4.50;;;17.70;99.90;;;;;;483391;246;29346;-68
2022/07/24 06:11:27;;;;;;;4.97;4.60;;;17.80;99.90;;;;;;483372;245;28804;-68
2022/07/24 06:13:28;;;;;;;5.00;4.60;;;17.90;99.90;;;;;;483390;245;28818;-71
2022/07/24 06:15:29;;;;;;;5.47;4.50;;;18.00;99.90;;;;;;483407;245;28786;-69
2022/07/24 06:17:31;;;;;;;4.70;4.27;;;18.10;99.90;;;;;;483335;245;28916;-68
2022/07/24 06:19:32;;;;;;;4.60;4.30;;;18.20;99.90;;;;;;483381;245;28770;-69
2022/07/24 06:21:33;;;;;;;4.70;4.30;;;18.30;99.90;;;;;;483391;245;28827;-69
2022/07/24 06:23:34;;;;;;;4.90;4.50;;;18.40;99.90;;;;;;483407;245;28837;-72
2022/07/24 06:25:36;;;;;;;4.90;4.50;;;18.50;99.90;;;;;;483395;245;28797;-69
2022/07/24 06:27:37;;;;;;;4.77;4.07;;;18.50;99.90;;;;;;483273;245;28843;-70
2022/07/24 06:29:38;;;;;;;4.50;4.10;;;18.60;99.90;;;;;;483392;245;29308;-68
2022/07/24 06:31:39;;;;;;;4.80;4.40;;;18.70;99.90;;;;;;483388;245;29288;-69
2022/07/24 06:33:41;;;;;;;4.83;4.53;;;18.80;99.90;;;;;;483386;245;29407;-71
2022/07/24 06:35:42;;;;;;;5.13;4.73;;;18.90;99.90;;;;;;483277;246;28849;-69
2022/07/24 06:37:43;;;;;;;4.50;4.20;;;19.00;99.90;;;;;;483351;246;28823;-70
2022/07/24 06:39:44;;;;;;;4.80;4.40;;;19.10;99.90;;;;;;483397;245;28766;-69
2022/07/24 06:41:46;;;;;;;5.27;4.87;;;19.20;99.90;;;;;;483347;245;28820;-70
2022/07/24 06:43:47;;;;;;;4.80;4.40;;;19.30;99.90;;;;;;483405;245;28900;-68
2022/07/24 06:45:48;;;;;;;4.60;4.30;;;19.40;99.90;;;;;;483405;245;28806;-69
2022/07/24 06:47:49;;;;;;;4.53;4.13;;;19.50;99.90;;;;;;483388;245;28839;-70
2022/07/24 06:49:51;;;;;;;5.00;4.60;;;19.50;99.90;;;;;;483435;245;28784;-69
2022/07/24 06:51:52;;;;;;;4.40;4.10;;;19.60;99.90;;;;;;483439;245;28868;-69
2022/07/24 06:53:53;;;;;;;4.63;4.23;;;19.70;99.90;;;;;;483432;245;29743;-71
2022/07/24 06:55:55;;;;;;;4.43;4.13;;;19.70;99.90;;;;;;483427;245;28771;-69
2022/07/24 06:57:56;;;;;;;4.20;3.80;;;19.80;99.90;;;;;;483358;245;28847;-70
2022/07/24 06:59:57;;;;;;;4.83;4.43;;;19.80;99.90;;;;;;483405;246;28785;-69
2022/07/24 07:01:58;;;;;;;5.40;4.93;;;19.90;99.90;;;;;;483411;245;28920;-71
2022/07/24 07:04:00;;;;;;;4.50;4.20;;;19.90;99.90;;;;;;483421;245;28855;-72
2022/07/24 07:06:01;;;;;;;4.30;4.00;;;20.00;99.90;;;;;;483407;245;29260;-77
2022/07/24 07:08:02;;;;;;;4.17;3.87;;;20.00;99.90;;;;;;483311;245;29383;-69
2022/07/24 07:10:03;;;;;;;9.43;4.30;;;20.10;99.90;;;;;;483395;245;29319;-68
2022/07/24 07:12:05;;;;;;;4.20;3.90;;;20.10;99.90;;;;;;483389;245;29293;-69
2022/07/24 07:14:06;;;;;;;4.50;4.20;;;20.20;99.90;;;;;;483417;245;28850;-73
2022/07/24 07:16:07;;;;;;;4.57;4.17;;;20.30;99.90;;;;;;483346;245;28909;-70
2022/07/24 07:18:08;;;;;;;4.20;3.90;;;20.30;99.90;;;;;;483389;245;28907;-69
2022/07/24 07:20:10;;;;;;;3.93;3.63;;;20.40;99.90;;;;;;483388;245;29330;-69
2022/07/24 07:22:11;;;;;;;4.27;3.97;;;20.50;99.90;;;;;;483403;245;29357;-69
2022/07/24 07:24:12;;;;;;;4.53;4.17;;;20.60;99.90;;;;;;483413;245;29316;-71
2022/07/24 07:26:13;;;;;;;4.83;4.43;;;20.60;99.90;;;;;;483335;245;29312;-69
2022/07/24 07:28:15;;;;;;;4.30;4.00;;;20.70;99.90;;;;;;483417;246;28812;-69
2022/07/24 07:30:16;;;;;;;4.97;4.53;;;20.70;99.90;;;;;;483405;245;28821;-69
2022/07/24 07:32:17;;;;;;;4.53;4.23;;;20.70;99.90;;;;;;483422;245;28788;-69
2022/07/24 07:34:18;;;;;;;4.70;4.40;;;20.80;99.90;;;;;;483410;245;28951;-72
2022/07/24 07:36:20;;;;;;;4.57;4.20;;;20.80;99.90;;;;;;483251;245;28852;-69
2022/07/24 07:38:21;;;;;;;4.90;4.40;;;20.90;99.90;;;;;;483410;245;28887;-69
2022/07/24 07:40:22;;;;;;;4.77;4.37;;;21.00;99.90;;;;;;483378;245;28771;-69
2022/07/24 07:42:23;;;;;;;4.90;4.50;;;20.90;99.90;;;;;;483419;246;28812;-69
2022/07/24 07:44:25;;;;;;;4.80;4.40;;;20.90;99.90;;;;;;483421;246;29290;-71
2022/07/24 07:46:26;;;;;;;4.73;4.30;;;21.00;99.90;;;;;;483347;245;29322;-69
2022/07/24 07:48:28;;;;;;;4.73;4.43;;;21.10;99.90;;;;;;483400;245;29376;-70
2022/07/24 07:50:28;;;;;;;5.03;4.63;;;21.20;99.90;;;;;;483391;246;29303;-69
2022/07/24 07:52:30;;;;;;;5.87;5.37;;;21.20;99.90;;;;;;483421;245;28801;-69
2022/07/24 07:54:31;;;;;;;5.80;5.30;;;21.40;99.90;;;;;;483367;245;28829;-72
2022/07/24 07:56:32;;;;;;;5.00;4.60;;;21.40;99.90;;;;;;483260;245;28832;-69
2022/07/24 07:58:34;;;;;;;5.97;5.47;;;21.40;99.90;;;;;;483354;246;28824;-70
2022/07/24 08:00:35;;;;;;;4.90;4.50;;;21.40;99.90;;;;;;483405;245;28769;-69
2022/07/24 08:02:36;;;;;;;5.67;4.93;;;21.50;99.90;;;;;;483412;245;28843;-69
2022/07/24 08:04:37;;;;;;;5.03;4.53;;;21.50;99.90;;;;;;483447;245;28797;-71
2022/07/24 08:06:38;;;;;;;4.83;4.43;;;21.50;99.90;;;;;;483316;245;28918;-69
2022/07/24 08:08:40;;;;;;;5.23;4.83;;;21.50;99.90;;;;;;483363;245;28905;-72
2022/07/24 08:10:41;;;;;;;5.83;5.23;;;21.60;99.90;;;;;;483385;245;29303;-69
2022/07/24 08:12:42;;;;;;;5.20;4.80;;;21.70;99.90;;;;;;483409;245;29233;-69
2022/07/24 08:14:43;;;;;;;5.17;4.77;;;21.80;99.90;;;;;;483458;245;29306;-72
2022/07/24 08:16:45;;;;;;;5.37;4.97;;;21.90;99.90;;;;;;483357;246;28783;-69
2022/07/24 08:18:46;;;;;;;5.40;4.90;;;22.00;99.90;;;;;;483444;245;28841;-69
2022/07/24 08:20:47;;;;;;;5.30;4.80;;;22.00;99.90;;;;;;483435;245;28776;-69
2022/07/24 08:22:48;;;;;;;6.40;5.80;;;22.10;99.90;;;;;;483403;245;28882;-69
2022/07/24 08:24:50;;;;;;;5.40;4.90;;;22.20;99.90;;;;;;483425;245;28818;-72
2022/07/24 08:26:51;;;;;;;5.67;5.07;;;22.10;99.90;;;;;;483362;245;28895;-70
2022/07/24 08:28:52;;;;;;;5.97;5.47;;;22.20;99.90;;;;;;483402;245;28829;-70
2022/07/24 08:30:53;;;;;;;5.80;5.20;;;22.30;99.90;;;;;;483382;243;28777;-69
2022/07/24 08:32:55;;;;;;;5.30;4.87;;;22.40;99.90;;;;;;483402;245;28865;-69
2022/07/24 08:34:56;;;;;;;5.07;4.67;;;22.40;99.90;;;;;;483162;245;29278;-70
2022/07/24 08:36:57;;;;;;;5.53;5.00;;;22.40;99.90;;;;;;483322;245;29305;-68
2022/07/24 08:38:58;;;;;;;5.90;5.40;;;22.50;99.90;;;;;;483367;245;29391;-69
2022/07/24 08:41:00;;;;;;;5.17;4.77;;;22.40;99.90;;;;;;483280;245;28936;-73
2022/07/24 08:43:01;;;;;;;5.40;5.00;;;22.50;99.90;;;;;;483178;245;28902;-70
2022/07/24 08:45:02;;;;;;;5.40;4.93;;;22.50;99.90;;;;;;483292;245;28805;-70
2022/07/24 08:47:03;;;;;;;5.30;4.90;;;22.60;99.90;;;;;;483239;245;28824;-68
2022/07/24 08:49:05;;;;;;;5.40;5.00;;;22.70;99.90;;;;;;483410;245;28825;-71
2022/07/24 08:51:06;;;;;;;5.47;5.07;;;22.70;99.90;;;;;;483427;245;28847;-69
2022/07/24 08:53:07;;;;;;;5.90;5.40;;;22.80;99.90;;;;;;483387;246;28800;-69
2022/07/24 08:55:08;;;;;;;5.57;5.07;;;22.70;99.90;;;;;;483417;245;28817;-70
2022/07/24 08:57:10;;;;;;;5.30;4.90;;;22.60;99.90;;;;;;483314;245;28785;-69
2022/07/24 08:59:11;;;;;;;5.60;5.13;;;22.70;99.90;;;;;;483392;245;29316;-70
2022/07/24 09:01:12;;;;;;;5.73;5.10;;;22.60;99.90;;;;;;483421;245;29383;-73
2022/07/24 09:03:13;;;;;;;6.20;5.60;;;22.60;99.90;;;;;;483398;245;29306;-69
2022/07/24 09:05:15;;;;;;;5.67;5.10;;;22.70;99.90;;;;;;483420;245;29288;-71
2022/07/24 09:07:16;;;;;;;6.17;5.53;;;22.80;99.90;;;;;;483311;245;28788;-70
2022/07/24 09:09:17;;;;;;;5.50;5.07;;;23.00;99.90;;;;;;483397;245;28824;-70
2022/07/24 09:11:18;;;;;;;6.40;5.80;;;23.20;99.90;;;;;;483417;245;28829;-72
2022/07/24 09:13:20;;;;;;;5.70;5.10;;;23.20;99.90;;;;;;483396;245;28799;-69
2022/07/24 09:15:23;;;;;;;6.17;5.60;;;23.30;99.90;;;;;;483420;245;28833;-70
2022/07/24 09:17:22;;;;;;;5.60;5.20;;;23.40;99.90;;;;;;483159;246;28861;-69
2022/07/24 09:19:23;;;;;;;5.50;5.00;;;23.40;99.90;;;;;;483416;245;28950;-69
2022/07/24 09:21:25;;;;;;;5.47;5.00;;;23.50;99.90;;;;;;483403;245;28825;-72
2022/07/24 09:23:26;;;;;;;5.57;5.13;;;23.70;99.90;;;;;;483393;245;28793;-69
2022/07/24 09:25:27;;;;;;;5.73;5.20;;;23.80;99.90;;;;;;483401;245;28874;-69
2022/07/24 09:27:29;;;;;;;5.23;4.73;;;23.80;99.90;;;;;;483336;245;30393;-69
2022/07/24 09:29:30;;;;;;;5.40;4.93;;;23.80;99.90;;;;;;483409;245;29251;-69
2022/07/24 09:31:31;;;;;;;5.10;4.60;;;23.80;99.90;;;;;;483416;245;29414;-71
2022/07/24 09:33:32;;;;;;;6.30;4.97;;;23.80;99.90;;;;;;483372;245;29329;-69
2022/07/24 09:35:34;;;;;;;4.70;4.30;;;23.70;99.90;;;;;;483213;245;28832;-70
2022/07/24 09:37:35;;;;;;;5.83;5.27;;;23.80;99.90;;;;;;483304;245;28803;-69
2022/07/24 09:39:36;;;;;;;5.93;5.43;;;23.80;99.90;;;;;;483405;246;28773;-69
2022/07/24 09:41:37;;;;;;;5.10;4.60;;;23.70;99.90;;;;;;483412;245;28817;-72
2022/07/24 09:43:39;;;;;;;5.00;4.60;;;23.70;99.90;;;;;;483407;246;28808;-69
2022/07/24 09:45:40;;;;;;;5.57;5.17;;;24.00;99.90;;;;;;483403;245;28894;-71
2022/07/24 09:47:41;;;;;;;4.70;4.30;;;24.00;99.90;;;;;;483342;245;28807;-70
2022/07/24 09:49:42;;;;;;;5.57;5.07;;;24.20;99.90;;;;;;483401;245;28789;-69
2022/07/24 09:51:44;;;;;;;5.43;5.03;;;24.20;99.90;;;;;;483410;245;29376;-71
2022/07/24 09:53:46;;;;;;;4.80;4.40;;;24.10;99.90;;;;;;483388;245;29306;-69
2022/07/24 09:55:46;;;;;;;5.33;4.93;;;24.00;99.90;;;;;;483371;246;29291;-70
2022/07/24 09:57:47;;;;;;;5.77;5.03;;;24.20;99.90;;;;;;483351;246;29299;-69
2022/07/24 09:59:49;;;;;;;4.80;4.40;;;24.40;99.90;;;;;;483409;243;28834;-70
2022/07/24 10:01:50;;;;;;;5.67;5.17;;;24.60;99.90;;;;;;483418;245;28820;-71
2022/07/24 10:03:51;;;;;;;5.17;4.77;;;24.80;99.90;;;;;;483417;245;28808;-69
2022/07/24 10:05:52;;;;;;;5.43;4.80;;;24.80;99.90;;;;;;483386;245;28856;-69
2022/07/24 10:07:54;;;;;;;8.40;5.17;;;25.00;99.90;;;;;;483325;245;28888;-69
2022/07/24 10:09:55;;;;;;;5.63;5.03;;;25.10;99.90;;;;;;483401;245;28803;-69
2022/07/24 10:11:56;;;;;;;4.67;4.27;;;25.10;99.90;;;;;;483402;245;28806;-70
2022/07/24 10:13:57;;;;;;;4.97;4.53;;;25.00;99.90;;;;;;483387;246;28873;-69
2022/07/24 10:15:59;;;;;;;5.20;4.70;;;25.00;99.90;;;;;;483380;245;28823;-73
2022/07/24 10:18:00;;;;;;;5.30;4.80;;;25.20;99.90;;;;;;483359;246;29768;-72
2022/07/24 10:20:01;;;;;;;5.23;4.73;;;25.40;99.90;;;;;;483390;245;28792;-69
2022/07/24 10:22:02;;;;;;;8.27;5.10;;;25.40;99.90;;;;;;483407;245;28927;-70
2022/07/24 10:24:04;;;;;;;5.20;4.70;;;25.40;99.90;;;;;;483421;245;28877;-70
2022/07/24 10:26:05;;;;;;;5.10;4.70;;;25.30;99.90;;;;;;483354;245;28820;-69
2022/07/24 10:28:06;;;;;;;5.13;4.63;;;25.30;99.90;;;;;;483442;245;28927;-74
2022/07/24 10:30:07;;;;;;;4.47;4.17;;;25.30;99.90;;;;;;483433;245;29329;-69
2022/07/24 10:32:09;;;;;;;4.70;4.30;;;25.00;99.90;;;;;;483429;245;29364;-70